createdAt,value
2023-04-07T00:02:17.634Z,100275.29
2023-04-07T00:04:46.898Z,100272.74
2023-04-07T00:07:15.147Z,100274.73
2023-04-07T00:09:43.331Z,100276.34
2023-04-07T00:12:11.501Z,100271.92
2023-04-07T00:14:39.885Z,100275.69
2023-04-07T00:17:08.048Z,100273.23
2023-04-07T00:19:36.435Z,100274.00
2023-04-07T00:22:04.714Z,100277.09
2023-04-07T00:24:34.638Z,100276.33
2023-04-07T00:27:03.640Z,100275.59
2023-04-07T00:29:31.898Z,100276.43
2023-04-07T00:32:00.499Z,100277.52
2023-04-07T00:34:28.965Z,100277.78
2023-04-07T00:36:57.644Z,100276.30
2023-04-07T00:39:27.827Z,100273.54
2023-04-07T00:41:56.652Z,100273.88
2023-04-07T00:44:25.039Z,100274.50
2023-04-07T00:46:53.441Z,100276.20
2023-04-07T00:49:21.792Z,100275.91
2023-04-07T00:51:50.374Z,100275.08
2023-04-07T00:54:19.372Z,100275.41
2023-04-07T00:56:47.750Z,100277.27
2023-04-07T00:59:16.228Z,100278.58
2023-04-07T01:02:00.035Z,100279.30
2023-04-07T01:05:07.915Z,100279.45
2023-04-07T01:08:01.559Z,100278.22
2023-04-07T01:10:42.005Z,100276.95
2023-04-07T01:13:33.831Z,100277.67
2023-04-07T01:16:17.055Z,100276.48
2023-04-07T01:18:54.554Z,100272.36
2023-04-07T01:21:29.086Z,100271.79
2023-04-07T01:24:25.204Z,100266.30
2023-04-07T01:27:03.053Z,100266.39
2023-04-07T01:29:34.564Z,100265.16
2023-04-07T01:32:06.569Z,100265.68
2023-04-07T01:34:37.462Z,100265.53
2023-04-07T01:37:07.854Z,100262.63
2023-04-07T01:39:38.764Z,100262.13
2023-04-07T01:42:08.666Z,100264.36
2023-04-07T01:44:38.688Z,100264.88
2023-04-07T01:47:07.272Z,100259.37
2023-04-07T01:49:37.982Z,100257.83
2023-04-07T01:52:07.452Z,100250.55
2023-04-07T01:54:36.273Z,100251.44
2023-04-07T01:57:04.766Z,100252.54
2023-04-07T01:59:33.444Z,100248.88
2023-04-07T02:02:02.547Z,100251.80
2023-04-07T02:04:53.860Z,100248.30
2023-04-07T02:07:50.705Z,100253.71
2023-04-07T02:10:24.202Z,100252.41
2023-04-07T02:12:55.788Z,100248.61
2023-04-07T02:15:25.157Z,100246.81
2023-04-07T02:17:56.518Z,100241.34
2023-04-07T02:20:25.193Z,100238.95
2023-04-07T02:22:56.068Z,100243.51
2023-04-07T02:25:30.921Z,100239.04
2023-04-07T02:28:01.473Z,100245.30
2023-04-07T02:30:29.972Z,100243.31
2023-04-07T02:32:58.582Z,100247.21
2023-04-07T02:35:27.244Z,100248.66
2023-04-07T02:37:55.638Z,100252.65
2023-04-07T02:40:24.214Z,100251.20
2023-04-07T02:42:54.941Z,100256.11
2023-04-07T02:45:24.547Z,100255.98
2023-04-07T02:47:52.863Z,100257.19
2023-04-07T02:50:21.407Z,100258.65
2023-04-07T02:52:49.991Z,100258.35
2023-04-07T02:55:18.785Z,100262.27
2023-04-07T02:57:47.260Z,100261.80
2023-04-07T03:00:35.830Z,100262.59
2023-04-07T03:03:11.599Z,100264.71
2023-04-07T03:05:43.423Z,100264.41
2023-04-07T03:08:13.048Z,100265.90
2023-04-07T03:10:41.924Z,100265.65
2023-04-07T03:13:10.302Z,100264.19
2023-04-07T03:15:39.302Z,100262.39
2023-04-07T03:18:07.635Z,100260.36
2023-04-07T03:20:36.680Z,100260.27
2023-04-07T03:23:10.271Z,100266.15
2023-04-07T03:25:38.755Z,100266.90
2023-04-07T03:28:07.543Z,100269.10
2023-04-07T03:30:37.780Z,100270.64
2023-04-07T03:33:06.324Z,100275.61
2023-04-07T03:35:35.345Z,100278.24
2023-04-07T03:38:04.748Z,100277.33
2023-04-07T03:40:33.946Z,100281.36
2023-04-07T03:43:02.429Z,100280.91
2023-04-07T03:45:31.325Z,100283.65
2023-04-07T03:47:59.764Z,100284.65
2023-04-07T03:50:28.183Z,100292.50
2023-04-07T03:53:10.175Z,100291.23
2023-04-07T03:55:38.762Z,100297.37
2023-04-07T03:58:13.771Z,100296.79
2023-04-07T04:00:42.378Z,100298.27
2023-04-07T04:03:11.965Z,100300.61
2023-04-07T04:05:54.632Z,100302.47
2023-04-07T04:08:27.693Z,100304.66
2023-04-07T04:10:56.195Z,100301.91
2023-04-07T04:13:25.987Z,100301.70
2023-04-07T04:15:55.738Z,100302.45
2023-04-07T04:18:24.293Z,100303.64
2023-04-07T04:20:54.300Z,100307.83
2023-04-07T04:23:22.686Z,100313.47
2023-04-07T04:25:53.516Z,100312.29
2023-04-07T04:28:22.199Z,100314.64
2023-04-07T04:30:51.703Z,100318.00
2023-04-07T04:33:20.600Z,100320.58
2023-04-07T04:35:56.964Z,100325.14
2023-04-07T04:38:26.365Z,100324.17
2023-04-07T04:41:08.272Z,100327.05
2023-04-07T04:43:36.583Z,100330.36
2023-04-07T04:46:05.840Z,100333.94
2023-04-07T04:48:38.008Z,100337.98
2023-04-07T04:51:08.030Z,100340.01
2023-04-07T04:53:37.330Z,100345.87
2023-04-07T04:56:07.349Z,100345.91
2023-04-07T04:58:46.220Z,100344.99
2023-04-07T05:01:20.054Z,100351.02
2023-04-07T05:03:54.740Z,100357.91
2023-04-07T05:06:27.791Z,100359.13
2023-04-07T05:08:58.216Z,100363.86
2023-04-07T05:11:28.655Z,100363.72
2023-04-07T05:13:57.740Z,100367.65
2023-04-07T05:16:26.864Z,100372.33
2023-04-07T05:18:56.180Z,100374.21
2023-04-07T05:23:57.095Z,100381.77
2023-04-07T05:26:26.307Z,100385.57
2023-04-07T05:28:55.286Z,100387.55
2023-04-07T05:31:25.662Z,100388.08
2023-04-07T05:33:56.756Z,100391.81
2023-04-07T05:36:27.950Z,100397.27
2023-04-07T05:38:57.825Z,100397.14
2023-04-07T05:41:26.605Z,100399.46
2023-04-07T05:43:55.611Z,100409.64
2023-04-07T05:46:23.975Z,100410.94
2023-04-07T05:48:56.040Z,100416.64
2023-04-07T05:51:26.480Z,100414.83
2023-04-07T05:53:55.565Z,100413.73
2023-04-07T05:56:24.967Z,100417.31
2023-04-07T05:58:53.860Z,100418.23
2023-04-07T06:01:22.362Z,100419.68
2023-04-07T06:03:50.921Z,100422.36
2023-04-07T06:06:27.117Z,100423.67
2023-04-07T06:08:55.575Z,100425.61
2023-04-07T06:11:25.693Z,100424.63
2023-04-07T06:13:54.580Z,100435.53
2023-04-07T06:16:22.872Z,100437.80
2023-04-07T06:18:51.540Z,100439.94
2023-04-07T06:21:19.819Z,100440.27
2023-04-07T06:23:48.398Z,100446.98
2023-04-07T06:26:16.884Z,100446.17
2023-04-07T06:28:45.676Z,100450.11
2023-04-07T06:31:13.992Z,100450.18
2023-04-07T06:33:42.651Z,100456.78
2023-04-07T06:36:12.146Z,100460.98
2023-04-07T06:38:41.049Z,100459.45
2023-04-07T06:41:16.998Z,100462.69
2023-04-07T06:43:47.824Z,100462.81
2023-04-07T06:46:16.486Z,100470.20
2023-04-07T06:48:45.092Z,100470.34
2023-04-07T06:51:13.577Z,100475.17
2023-04-07T06:53:42.162Z,100474.71
2023-04-07T06:56:12.030Z,100481.86
2023-04-07T06:58:40.803Z,100481.95
2023-04-07T07:01:09.154Z,100481.60
2023-04-07T07:03:37.737Z,100484.33
2023-04-07T07:06:06.557Z,100488.56
2023-04-07T07:08:34.797Z,100493.38
2023-04-07T07:11:03.273Z,100494.48
2023-04-07T07:13:31.556Z,100496.34
2023-04-07T07:16:00.087Z,100504.05
2023-04-07T07:18:31.588Z,100500.74
2023-04-07T07:21:00.377Z,100501.71
2023-04-07T07:23:28.552Z,100505.31
2023-04-07T07:25:56.927Z,100509.23
2023-04-07T07:28:25.509Z,100509.13
2023-04-07T07:30:53.825Z,100515.67
2023-04-07T07:33:23.187Z,100522.92
2023-04-07T07:35:51.832Z,100524.13
2023-04-07T07:38:20.590Z,100521.89
2023-04-07T07:40:48.757Z,100523.69
2023-04-07T07:43:18.248Z,100532.33
2023-04-07T07:45:46.826Z,100533.64
2023-04-07T07:48:15.670Z,100539.85
2023-04-07T07:50:45.221Z,100539.69
2023-04-07T07:53:13.396Z,100540.73
2023-04-07T07:55:41.891Z,100545.98
2023-04-07T07:58:10.357Z,100544.30
2023-04-07T08:00:38.749Z,100548.86
2023-04-07T08:03:07.427Z,100550.18
2023-04-07T08:05:36.083Z,100548.23
2023-04-07T08:08:04.292Z,100554.27
2023-04-07T08:10:32.880Z,100553.84
2023-04-07T08:13:01.415Z,100558.36
2023-04-07T08:15:29.936Z,100563.65
2023-04-07T08:18:00.256Z,100565.36
2023-04-07T08:20:28.744Z,100567.50
2023-04-07T08:22:57.633Z,100568.67
2023-04-07T08:25:26.521Z,100568.76
2023-04-07T08:27:55.721Z,100564.90
2023-04-07T08:30:24.244Z,100565.41
2023-04-07T08:32:52.540Z,100568.07
2023-04-07T08:35:21.068Z,100563.73
2023-04-07T08:37:50.592Z,100566.58
2023-04-07T08:40:18.856Z,100565.87
2023-04-07T08:42:49.484Z,100566.73
2023-04-07T08:45:19.589Z,100563.99
2023-04-07T08:47:53.844Z,100567.83
2023-04-07T08:50:25.473Z,100559.42
2023-04-07T08:53:00.825Z,100566.39
2023-04-07T08:55:29.193Z,100559.59
2023-04-07T08:57:59.589Z,100564.70
2023-04-07T09:00:30.143Z,100569.36
2023-04-07T09:03:00.671Z,100560.44
2023-04-07T09:05:31.009Z,100563.40
2023-04-07T09:07:59.579Z,100563.05
2023-04-07T09:10:28.272Z,100572.09
2023-04-07T09:12:59.054Z,100568.95
2023-04-07T09:15:31.995Z,100570.33
2023-04-07T09:18:00.331Z,100566.61
2023-04-07T09:20:28.649Z,100562.40
2023-04-07T09:22:57.028Z,100564.16
2023-04-07T09:25:29.874Z,100572.05
2023-04-07T09:28:00.242Z,100577.63
2023-04-07T09:30:30.266Z,100577.41
2023-04-07T09:32:59.911Z,100573.00
2023-04-07T09:35:28.920Z,100571.94
2023-04-07T09:38:08.898Z,100577.81
2023-04-07T09:40:37.814Z,100581.19
2023-04-07T09:43:07.615Z,100576.21
2023-04-07T09:45:37.701Z,100579.10
2023-04-07T09:48:19.381Z,100574.17
2023-04-07T09:50:52.217Z,100581.14
2023-04-07T09:53:23.204Z,100576.83
2023-04-07T09:55:52.294Z,100576.97
2023-04-07T09:58:21.024Z,100575.13
2023-04-07T10:00:49.616Z,100575.66
2023-04-07T10:03:18.203Z,100581.55
2023-04-07T10:05:47.188Z,100585.38
2023-04-07T10:08:15.891Z,100591.89
2023-04-07T10:10:44.670Z,100592.29
2023-04-07T10:13:13.358Z,100588.34
2023-04-07T10:15:42.042Z,100596.96
2023-04-07T10:18:11.145Z,100597.91
2023-04-07T10:20:43.525Z,100597.88
2023-04-07T10:23:32.059Z,100593.67
2023-04-07T10:26:02.642Z,100596.86
2023-04-07T10:28:33.565Z,100596.84
2023-04-07T10:31:03.941Z,100594.50
2023-04-07T10:33:52.037Z,100597.13
2023-04-07T10:36:22.352Z,100602.36
2023-04-07T10:39:09.139Z,100597.49
2023-04-07T10:41:39.207Z,100605.69
2023-04-07T10:44:09.640Z,100603.76
2023-04-07T10:46:49.736Z,100605.27
2023-04-07T10:49:21.184Z,100609.08
2023-04-07T10:52:22.338Z,100611.20
2023-04-07T10:55:28.607Z,100615.73
2023-04-07T10:58:16.537Z,100615.64
2023-04-07T11:00:57.310Z,100619.96
2023-04-07T11:03:26.086Z,100626.56
2023-04-07T11:06:14.519Z,100619.27
2023-04-07T11:08:44.208Z,100621.02
2023-04-07T11:11:15.870Z,100628.26
2023-04-07T11:13:51.374Z,100630.45
2023-04-07T11:16:34.659Z,100630.20
2023-04-07T11:19:02.864Z,100628.89
2023-04-07T11:21:31.127Z,100623.11
2023-04-07T11:23:59.413Z,100619.22
2023-04-07T11:26:28.099Z,100619.30
2023-04-07T11:28:59.153Z,100623.31
2023-04-07T11:31:29.468Z,100620.78
2023-04-07T11:34:00.213Z,100628.09
2023-04-07T11:36:33.397Z,100620.93
2023-04-07T11:39:02.569Z,100621.14
2023-04-07T11:41:33.990Z,100616.45
2023-04-07T11:44:11.146Z,100618.51
2023-04-07T11:46:57.026Z,100618.20
2023-04-07T11:49:30.169Z,100616.14
2023-04-07T11:52:03.586Z,100615.68
2023-04-07T11:54:53.496Z,100618.60
2023-04-07T11:57:29.552Z,100615.30
2023-04-07T12:00:09.297Z,100617.80
2023-04-07T12:02:37.976Z,100620.23
2023-04-07T12:05:07.453Z,100618.34
2023-04-07T12:07:36.683Z,100617.35
2023-04-07T12:10:22.553Z,100628.13
2023-04-07T12:12:51.772Z,100623.36
2023-04-07T12:15:20.818Z,100628.73
2023-04-07T12:17:49.692Z,100630.85
2023-04-07T12:20:19.274Z,100633.49
2023-04-07T12:22:47.877Z,100631.73
2023-04-07T12:25:16.020Z,100631.71
2023-04-07T12:27:44.162Z,100632.08
2023-04-07T12:30:13.540Z,100633.39
2023-04-07T12:32:42.119Z,100637.66
2023-04-07T12:35:10.390Z,100638.50
2023-04-07T12:37:38.738Z,100635.71
2023-04-07T12:40:07.782Z,100637.90
2023-04-07T12:42:35.912Z,100637.56
2023-04-07T12:45:04.796Z,100641.56
2023-04-07T12:47:34.169Z,100642.63
2023-04-07T12:50:02.994Z,100638.59
2023-04-07T12:52:32.288Z,100637.82
2023-04-07T12:55:00.461Z,100643.91
2023-04-07T12:57:29.071Z,100640.76
2023-04-07T12:59:57.215Z,100645.46
2023-04-07T13:02:26.072Z,100645.29
2023-04-07T13:04:54.274Z,100641.82
2023-04-07T13:07:22.561Z,100648.13
2023-04-07T13:09:50.838Z,100652.14
2023-04-07T13:12:19.218Z,100648.15
2023-04-07T13:14:59.306Z,100650.70
2023-04-07T13:17:29.225Z,100658.59
2023-04-07T13:19:57.570Z,100662.31
2023-04-07T13:22:26.042Z,100660.46
2023-04-07T13:24:54.522Z,100664.95
2023-04-07T13:27:22.707Z,100661.39
2023-04-07T13:29:50.875Z,100666.05
2023-04-07T13:32:19.287Z,100663.40
2023-04-07T13:34:47.635Z,100666.66
2023-04-07T13:37:16.828Z,100664.14
2023-04-07T13:39:45.731Z,100669.73
2023-04-07T13:42:17.006Z,100668.98
2023-04-07T13:44:50.629Z,100671.70
2023-04-07T13:47:21.854Z,100672.75
2023-04-07T13:49:52.039Z,100673.78
2023-04-07T13:52:20.520Z,100678.48
2023-04-07T13:54:48.802Z,100679.32
2023-04-07T13:57:21.089Z,100683.48
2023-04-07T13:59:52.244Z,100686.30
2023-04-07T14:02:21.633Z,100695.42
2023-04-07T14:04:50.200Z,100693.01
2023-04-07T14:07:18.475Z,100695.84
2023-04-07T14:09:48.398Z,100694.79
2023-04-07T14:12:16.669Z,100694.09
2023-04-07T14:14:44.856Z,100693.98
2023-04-07T14:17:13.225Z,100690.52
2023-04-07T14:19:42.420Z,100689.29
2023-04-07T14:22:11.313Z,100693.97
2023-04-07T14:24:39.586Z,100698.98
2023-04-07T14:27:07.965Z,100702.11
2023-04-07T14:29:36.404Z,100703.92
2023-04-07T14:32:04.925Z,100711.50
2023-04-07T14:34:33.114Z,100718.91
2023-04-07T14:37:01.600Z,100722.33
2023-04-07T14:39:30.272Z,100723.73
2023-04-07T14:41:58.544Z,100725.96
2023-04-07T14:44:29.290Z,100723.62
2023-04-07T14:46:57.541Z,100727.82
2023-04-07T14:49:28.614Z,100731.58
2023-04-07T14:51:57.488Z,100736.02
2023-04-07T14:54:25.974Z,100735.19
2023-04-07T14:56:54.149Z,100739.25
2023-04-07T14:59:22.566Z,100743.44
2023-04-07T15:01:51.890Z,100743.27
2023-04-07T15:04:20.200Z,100744.63
2023-04-07T15:06:48.484Z,100745.68
2023-04-07T15:09:16.760Z,100747.54
2023-04-07T15:11:46.311Z,100747.46
2023-04-07T15:14:14.717Z,100751.36
2023-04-07T15:16:42.828Z,100757.95
2023-04-07T15:19:10.992Z,100759.32
2023-04-07T15:21:39.476Z,100759.96
2023-04-07T15:24:07.756Z,100758.17
2023-04-07T15:26:36.131Z,100768.70
2023-04-07T15:29:04.421Z,100766.88
2023-04-07T15:31:32.951Z,100766.02
2023-04-07T15:34:01.369Z,100768.16
2023-04-07T15:36:29.546Z,100770.73
2023-04-07T15:39:02.326Z,100775.36
2023-04-07T15:41:30.927Z,100773.46
2023-04-07T15:44:00.211Z,100773.34
2023-04-07T15:46:28.346Z,100778.35
2023-04-07T15:48:56.764Z,100776.58
2023-04-07T15:51:25.043Z,100775.48
2023-04-07T15:53:53.624Z,100780.13
2023-04-07T15:56:24.799Z,100785.02
2023-04-07T15:58:53.555Z,100784.47
2023-04-07T16:01:22.099Z,100789.42
2023-04-07T16:03:54.764Z,100786.87
2023-04-07T16:06:23.514Z,100791.09
2023-04-07T16:08:51.680Z,100794.36
2023-04-07T16:11:21.491Z,100793.16
2023-04-07T16:13:49.957Z,100797.15
2023-04-07T16:16:19.396Z,100794.86
2023-04-07T16:18:48.272Z,100797.66
2023-04-07T16:21:16.750Z,100799.56
2023-04-07T16:23:45.133Z,100804.71
2023-04-07T16:26:13.921Z,100808.82
2023-04-07T16:28:44.342Z,100812.02
2023-04-07T16:31:12.631Z,100814.67
2023-04-07T16:33:41.309Z,100817.98
2023-04-07T16:36:09.648Z,100821.52
2023-04-07T16:38:38.438Z,100820.14
2023-04-07T16:41:08.088Z,100822.00
2023-04-07T16:43:36.671Z,100825.64
2023-04-07T16:46:08.378Z,100828.92
2023-04-07T16:48:36.617Z,100829.61
2023-04-07T16:51:05.504Z,100830.42
2023-04-07T16:53:33.570Z,100834.76
2023-04-07T16:56:01.852Z,100837.48
2023-04-07T16:58:30.229Z,100837.16
2023-04-07T17:00:58.447Z,100838.73
2023-04-07T17:03:26.986Z,100843.30
2023-04-07T17:05:55.364Z,100843.11
2023-04-07T17:08:25.988Z,100844.99
2023-04-07T17:10:54.381Z,100851.11
2023-04-07T17:13:22.820Z,100853.86
2023-04-07T17:15:51.322Z,100852.70
2023-04-07T17:18:19.636Z,100855.92
2023-04-07T17:20:47.783Z,100860.54
2023-04-07T17:23:16.366Z,100862.85
2023-04-07T17:25:44.744Z,100869.12
2023-04-07T17:28:13.132Z,100870.58
2023-04-07T17:30:41.707Z,100870.69
2023-04-07T17:33:09.922Z,100873.16
2023-04-07T17:35:40.752Z,100877.97
2023-04-07T17:38:09.201Z,100882.13
2023-04-07T17:40:37.372Z,100881.30
2023-04-07T17:43:05.682Z,100888.20
2023-04-07T17:45:34.146Z,100891.75
2023-04-07T17:48:03.865Z,100893.88
2023-04-07T17:50:32.254Z,100899.95
2023-04-07T17:53:01.017Z,100904.51
2023-04-07T17:55:29.292Z,100905.27
2023-04-07T17:58:01.664Z,100911.80
2023-04-07T18:00:30.248Z,100911.89
2023-04-07T18:02:59.398Z,100917.50
2023-04-07T18:05:31.056Z,100919.98
2023-04-07T18:07:59.992Z,100921.20
2023-04-07T18:10:29.498Z,100922.00
2023-04-07T18:12:59.160Z,100925.84
2023-04-07T18:15:27.996Z,100927.64
2023-04-07T18:17:56.378Z,100927.39
2023-04-07T18:20:24.964Z,100923.70
2023-04-07T18:22:55.653Z,100928.73
2023-04-07T18:25:25.818Z,100931.43
2023-04-07T18:27:54.600Z,100933.52
2023-04-07T18:30:23.185Z,100933.58
2023-04-07T18:32:52.412Z,100935.63
2023-04-07T18:35:20.863Z,100940.56
2023-04-07T18:37:49.969Z,100946.13
2023-04-07T18:40:18.456Z,100942.45
2023-04-07T18:42:46.912Z,100949.91
2023-04-07T18:45:15.213Z,100947.70
2023-04-07T18:47:43.548Z,100947.28
2023-04-07T18:50:12.182Z,100950.00
2023-04-07T18:52:41.468Z,100952.76
2023-04-07T18:55:11.309Z,100961.67
2023-04-07T18:57:40.474Z,100957.96
2023-04-07T19:00:10.096Z,100960.27
2023-04-07T19:02:44.402Z,100966.00
2023-04-07T19:05:14.220Z,100962.54
2023-04-07T19:07:42.504Z,100966.85
2023-04-07T19:10:11.184Z,100963.89
2023-04-07T19:12:40.175Z,100965.89
2023-04-07T19:15:10.328Z,100966.48
2023-04-07T19:17:39.419Z,100969.75
2023-04-07T19:20:11.459Z,100969.58
2023-04-07T19:22:39.931Z,100969.46
2023-04-07T19:25:08.801Z,100972.64
2023-04-07T19:27:37.204Z,100973.06
2023-04-07T19:30:06.503Z,100977.16
2023-04-07T19:32:34.823Z,100979.55
2023-04-07T19:35:03.606Z,100979.64
2023-04-07T19:37:31.852Z,100979.89
2023-04-07T19:40:03.268Z,100984.46
2023-04-07T19:42:32.504Z,100984.56
2023-04-07T19:45:02.421Z,100988.16
2023-04-07T19:47:31.435Z,100985.95
2023-04-07T19:49:59.684Z,100983.64
2023-04-07T19:52:34.345Z,100984.15
2023-04-07T19:55:04.245Z,100987.00
2023-04-07T19:57:34.349Z,100982.23
2023-04-07T20:00:04.432Z,100985.29
2023-04-07T20:02:32.884Z,100987.48
2023-04-07T20:05:01.731Z,100991.88
2023-04-07T20:07:31.645Z,100991.92
2023-04-07T20:10:00.143Z,100995.43
2023-04-07T20:12:28.506Z,100997.23
2023-04-07T20:14:56.684Z,100995.53
2023-04-07T20:17:25.092Z,100996.04
2023-04-07T20:19:56.205Z,100993.41
2023-04-07T20:22:24.587Z,100994.55
2023-04-07T20:24:52.685Z,100997.64
2023-04-07T20:27:21.464Z,100996.06
2023-04-07T20:29:49.727Z,100995.14
2023-04-07T20:32:19.542Z,100995.14
2023-04-07T20:34:48.533Z,100996.65
2023-04-07T20:37:17.431Z,100994.86
2023-04-07T20:39:45.901Z,100993.58
2023-04-07T20:42:14.900Z,100995.87
2023-04-07T20:44:43.425Z,100999.27
2023-04-07T20:47:13.129Z,101000.64
2023-04-07T20:49:43.704Z,100998.22
2023-04-07T20:52:12.714Z,100998.23
2023-04-07T20:54:42.833Z,101000.45
2023-04-07T20:57:11.229Z,101002.84
2023-04-07T20:59:40.013Z,101010.77
2023-04-07T21:02:08.325Z,101004.06
2023-04-07T21:04:37.683Z,101003.27
2023-04-07T21:07:06.792Z,100996.22
2023-04-07T21:09:35.271Z,100998.10
2023-04-07T21:12:04.562Z,100996.10
2023-04-07T21:14:32.866Z,100997.95
2023-04-07T21:17:01.227Z,100997.15
2023-04-07T21:19:29.409Z,101002.24
2023-04-07T21:21:57.585Z,101000.41
2023-04-07T21:24:26.047Z,101000.05
2023-04-07T21:26:54.641Z,100997.50
2023-04-07T21:29:22.810Z,100997.41
2023-04-07T21:31:50.978Z,100995.29
2023-04-07T21:34:19.257Z,100997.42
2023-04-07T21:36:47.840Z,100993.83
2023-04-07T21:39:16.218Z,100990.33
2023-04-07T21:41:44.494Z,100995.00
2023-04-07T21:44:13.487Z,100998.69
2023-04-07T21:46:41.993Z,100997.52
2023-04-07T21:49:10.152Z,100998.90
2023-04-07T21:51:38.732Z,100995.77
2023-04-07T21:54:07.823Z,100994.55
2023-04-07T21:56:36.313Z,100992.47
2023-04-07T21:59:04.794Z,100995.23
2023-04-07T22:01:33.337Z,101001.95
2023-04-07T22:04:02.312Z,100999.70
2023-04-07T22:06:31.539Z,100997.70
2023-04-07T22:09:02.246Z,101000.61
2023-04-07T22:11:30.678Z,101001.95
2023-04-07T22:13:59.159Z,101001.37
2023-04-07T22:16:27.599Z,100998.31
2023-04-07T22:18:55.814Z,101001.88
2023-04-07T22:21:24.299Z,101002.55
2023-04-07T22:23:52.783Z,101005.17
2023-04-07T22:26:21.522Z,101011.61
2023-04-07T22:28:50.036Z,101010.31
2023-04-07T22:31:18.362Z,101012.23
2023-04-07T22:33:46.905Z,101011.95
2023-04-07T22:36:15.695Z,101013.23
2023-04-07T22:38:44.382Z,101013.02
2023-04-07T22:41:12.757Z,101015.88
2023-04-07T22:43:41.037Z,101015.96
2023-04-07T22:46:09.430Z,101015.63
2023-04-07T22:48:37.591Z,101017.42
2023-04-07T22:51:05.761Z,101015.05
2023-04-07T22:53:34.243Z,101012.42
2023-04-07T22:56:02.728Z,101012.64
2023-04-07T22:58:31.409Z,101017.48
2023-04-07T23:00:59.737Z,101021.40
2023-04-07T23:03:28.454Z,101021.77
2023-04-07T23:05:56.980Z,101024.58
2023-04-07T23:08:25.604Z,101028.13
2023-04-07T23:10:54.132Z,101030.27
2023-04-07T23:13:22.404Z,101029.55
2023-04-07T23:15:50.899Z,101031.72
2023-04-07T23:18:19.123Z,101032.20
2023-04-07T23:20:52.128Z,101032.41
2023-04-07T23:23:20.427Z,101036.67
2023-04-07T23:25:49.008Z,101030.95
2023-04-07T23:28:17.387Z,101031.40
2023-04-07T23:30:45.776Z,101031.16
2023-04-07T23:33:14.254Z,101026.52
2023-04-07T23:35:42.562Z,101025.77
2023-04-07T23:38:11.216Z,101027.77
2023-04-07T23:40:39.655Z,101023.86
2023-04-07T23:43:07.976Z,101026.79
2023-04-07T23:45:36.825Z,101023.80
2023-04-07T23:48:06.117Z,101023.87
2023-04-07T23:50:34.342Z,101027.88
2023-04-07T23:53:03.131Z,101026.02
2023-04-07T23:55:31.512Z,101025.22
2023-04-07T23:57:59.897Z,101028.05
